Tiempo atmosférico en la estación meteorológica de Fuentesauco, Zamora (811 m.)



Fecha
DESCASC
Temp. máxima en grados centígrados (hora)
DESCASC
Temp. mínima en grados centígrados (hora)
DESCASC
Temp. media en grados centígrados
DESCASC
Racha de viento máxima en m/sg (hora)
DESCASC
Velocidad máxima media en intervalos de 10 minutos(hora)
DESCASC
Precipitaciones diarias en mm
DESCASC
Precipitaciones de 00:00 a 06:00 en mm
DESCASC
Precipitaciones de 06:00 a 12:00 en mm
DESCASC
Precipitaciones de 12:00 a 18:00 en mm
DESCASC
Precipitaciones de 18:00 a 24:00 en mm
DESCASC
02-04-2020 12.6 (17:30) 1.6 (04:00) 7.1 11.11 (17:50) 8.33 (17:50) -- -- -- -- --
01-04-2020 13.3 (17:50) 3.2 (05:40) 8.3 6.94 (00:30) 4.72 (00:30) -- -- -- -- --
31-03-2020 9.6 (17:20) 0 (00:00) 4.8 12.5 (06:40) 8.61 (05:00) -- -- -- -- --
30-03-2020 7.3 (00:00) 1.4 (23:59) 4.4 13.33 (10:30) 9.44 (10:30) -- -- -- -- --
29-03-2020 17.2 (17:40) 1.6 (00:00) 9.4 13.06 (22:40) 8.33 (23:10) -- -- -- -- --
28-03-2020 14.8 (17:10) -1.1 (-00:0) 6.9 8.06 (14:40) 3.89 (13:40) -- -- -- -- --
27-03-2020 11.7 (17:10) -1.8 (-00:0) 4.9 10.83 (13:30) 6.94 (10:40) -- -- -- -- --
26-03-2020 14 (17:00) -0.3 (00:00) 6.8 8.61 (22:10) 6.11 (21:20) -- -- -- -- --
25-03-2020 18.1 (17:10) 2.2 (00:00) 10.2 8.89 (13:20) 5.56 (23:50) -- -- -- -- --
24-03-2020 15.1 (16:50) 1.9 (00:00) 8.5 9.44 (09:40) 5 (12:10) -- -- -- -- --
23-03-2020 14 (15:10) 2.9 (00:00) 8.5 10.28 (16:40) 6.11 (16:50) -- -- -- -- --
22-03-2020 13.4 (16:30) 5.2 (06:20) 9.3 9.72 (18:40) 6.94 (17:00) -- -- -- -- --
21-03-2020 10.2 (16:10) 6.6 (00:00) 8.4 10.28 (02:30) 7.5 (02:30) -- -- -- -- --
20-03-2020 -- (--) -- (--) -- 8.33 (20:50) 5.83 (21:10) -- 0 -- -- --
19-03-2020 14 (13:50) 5.9 (00:00) 10 6.11 (22:10) 4.17 (21:00) 0 0 0 0 0
18-03-2020 15.6 (17:00) 3.9 (00:00) 9.8 6.39 (14:30) 4.17 (14:30) -- -- -- 0 0
17-03-2020 14.4 (16:50) 4.4 (00:00) 9.4 10.83 (05:40) 7.78 (01:00) -- -- -- -- --
16-03-2020 5.4 (17:20) 0 (00:00) 2.7 19.44 (17:40) 13.61 (18:20) -- -- -- -- --
15-03-2020 18.1 (14:20) 2.1 (00:00) 10.1 15.83 (20:40) 9.44 (21:20) -- -- -- -- --
14-03-2020 17.7 (16:30) 0.3 (00:00) 9 4.72 (12:20) 2.78 (12:20) 0 0 0 0 0
13-03-2020 15.8 (15:40) 5.4 (23:59) 10.6 7.78 (08:50) 5.28 (17:50) 0 0 0 0 0
12-03-2020 21 (14:20) 8.8 (00:00) 14.9 5.83 (22:20) 4.44 (22:20) 0 0 0 0 0
11-03-2020 23.8 (16:40) 5.9 (00:00) 14.8 7.5 (14:50) 5 (14:30) 0 0 0 0 0
10-03-2020 20.9 (17:10) 5.4 (00:00) 13.1 7.78 (17:40) 5.56 (17:20) 0 0 0 0 0
09-03-2020 15.2 (16:20) 1 (00:00) 8.1 7.78 (00:20) 5.28 (01:10) 0 0 0 0 0
08-03-2020 12.5 (17:20) 0.7 (00:00) 6.6 11.67 (19:00) 7.78 (19:10) 0 0 0 0 0
07-03-2020 13.5 (17:20) 1.7 (00:00) 7.6 5.28 (01:00) 3.89 (01:00) 0 0 0 0 0
06-03-2020 10.3 (14:50) 3.4 (00:00) 6.9 14.72 (10:40) 10 (10:40) 0 0 0 0 0
05-03-2020 11.7 (15:30) 4.1 (00:00) 7.9 18.33 (08:40) 12.5 (08:40) 2.8 0 2.6 0.2 0

Gráficas

Temp. máximas Temp. mínimas Temp. medias Precipitaciones Rachas de viento máximas Velocidades máximas media en intervalos de 10 minutos

Datos horarios

Fecha y hora oficial Temperatura (ºC) Velocidad del viento (km/h) Dirección del viento Racha (km/h) Dirección de racha Precipitación (mm) Presión (hPa) Tendencia (hPa) Humedad (%)
2020-04-03 23:00:00 5 3 Este 10 Este -- -- -- 78
2020-04-03 22:00:00 6.3 4 Este 6 Este -- -- -- 74
2020-04-03 21:00:00 7.5 4 Nordeste 10 Nordeste -- -- -- 73
2020-04-03 20:00:00 13.3 7 Nordeste 12 Nordeste -- -- -- 50
2020-04-03 19:00:00 14.8 5 Noroeste 10 Nordeste -- -- -- 43
2020-04-03 18:00:00 14.2 4 Nordeste 16 Este -- -- -- 43
2020-04-03 17:00:00 14.4 6 Sudeste 12 Sudeste -- -- -- 49
2020-04-03 16:00:00 13.8 5 Norte 18 Este -- -- -- 50
2020-04-03 15:00:00 12.2 9 Nordeste 17 Sudeste -- -- -- 51
2020-04-03 14:00:00 11.9 6 Nordeste 15 Nordeste -- -- -- 54
2020-04-03 13:00:00 10.5 4 Sudeste 21 Este -- -- -- 53
2020-04-03 12:00:00 8.2 11 Este 19 Este -- -- -- 62
2020-04-03 11:00:00 6 11 Este 22 Este -- -- -- 69
2020-04-03 10:00:00 4.4 8 Este 18 Este -- -- -- 77
2020-04-03 09:00:00 1.4 0 Calma 0 Calma -- -- -- 93
2020-04-03 08:00:00 -0.1 0 Calma 7 Este -- -- -- 94
2020-04-03 07:00:00 -0.4 0 Calma 12 Este -- -- -- 93
2020-04-03 06:00:00 0.3 10 Este 15 Nordeste -- -- -- 93
2020-04-03 05:00:00 0.6 7 Nordeste 14 Nordeste -- -- -- 91
2020-04-03 04:00:00 1.7 9 Este 13 Este -- -- -- 86
2020-04-03 03:00:00 2.9 9 Este 15 Este -- -- -- 85
2020-04-03 02:00:00 5 12 Este 16 Este -- -- -- 83
2020-04-03 01:00:00 5.5 8 Nordeste 18 Este -- -- -- 86
2020-04-03 00:00:00 5.6 9 Este 13 Este -- -- -- 84
2020-04-02 23:00:00 6.9 9 Sudeste 15 Sudeste -- -- -- 79
2020-04-02 22:00:00 7.1 11 Este 16 Este -- -- -- 85
2020-04-02 21:00:00 8.3 6 Nordeste 24 Nordeste -- -- -- 85
2020-04-02 20:00:00 10.2 14 Nordeste 27 Nordeste -- -- -- 74
2020-04-02 19:00:00 11.8 13 Nordeste 26 Nordeste -- -- -- 69
2020-04-02 18:00:00 10.4 22 Nordeste 40 Nordeste -- -- -- 73
2020-04-02 17:00:00 11.3 21 Nordeste 32 Nordeste -- -- -- 71
2020-04-02 16:00:00 12.3 20 Nordeste 32 Nordeste -- -- -- 70
2020-04-02 15:00:00 10.8 17 Nordeste 24 Nordeste -- -- -- 78
2020-04-02 14:00:00 8.8 15 Nordeste 22 Nordeste -- -- -- 87
2020-04-02 13:00:00 7.2 10 Nordeste 20 Nordeste -- -- -- 94
2020-04-02 12:00:00 6.7 13 Norte 20 Norte -- -- -- 94
2020-04-02 11:00:00 7 12 Nordeste 24 Nordeste -- -- -- 94
2020-04-02 10:00:00 6.6 13 Nordeste 19 Nordeste -- -- -- 97
2020-04-02 09:00:00 6 8 Nordeste 12 Nordeste -- -- -- 97
2020-04-02 08:00:00 5.5 4 Norte 7 Norte -- -- -- 97
2020-04-02 07:00:00 5 6 Norte 9 Norte -- -- -- 97
2020-04-02 06:00:00 4.8 6 Norte 9 Norte -- -- -- 97
2020-04-02 05:00:00 2.7 0 Calma -- -- -- -- -- 96
2020-04-02 04:00:00 1.6 0 Calma 5 Norte -- -- -- 95
2020-04-02 03:00:00 2.1 0 Calma 5 Norte -- -- -- 93
2020-04-02 02:00:00 2.7 5 Norte 8 Norte -- -- -- 94
2020-04-02 01:00:00 3.6 3 Norte 6 Noroeste -- -- -- 90
2020-04-02 00:00:00 4.5 6 Norte 13 Norte -- -- -- 89
2020-04-01 23:00:00 5.9 10 Norte 17 Norte -- -- -- 89
2020-04-01 22:00:00 7.1 10 Norte 22 Nordeste -- -- -- 85
2020-04-01 21:00:00 8 12 Norte 17 Norte -- -- -- 75
2020-04-01 20:00:00 11.4 9 Noroeste 17 Sudoeste -- -- -- 61
2020-04-01 19:00:00 12.1 8 Oeste 18 Oeste -- -- -- 48
2020-04-01 18:00:00 13.1 11 Sudoeste 22 Sudoeste -- -- -- 50
2020-04-01 17:00:00 12.3 6 Noroeste 19 Oeste -- -- -- 55
2020-04-01 16:00:00 12 4 Oeste 10 Oeste -- -- -- 61
2020-04-01 15:00:00 10.8 4 Noroeste 14 Norte -- -- -- 71
2020-04-01 14:00:00 9.7 8 Nordeste 17 Este -- -- -- 76
2020-04-01 13:00:00 8.6 10 Nordeste 16 Norte -- -- -- 84
2020-04-01 12:00:00 6.3 5 Noroeste 12 Sudoeste -- -- -- 90
2020-04-01 11:00:00 5.8 9 Sudoeste 13 Sudoeste -- -- -- 90
2020-04-01 10:00:00 5.7 5 Norte 8 Norte -- -- -- 91
2020-04-01 09:00:00 3.8 4 Oeste 9 Sudoeste -- -- -- 93
2020-04-01 08:00:00 3.3 6 Sudoeste 10 Sudoeste -- -- -- 94
2020-04-01 07:00:00 3.9 4 Sudoeste 6 Sudoeste -- -- -- 93
2020-04-01 06:00:00 3.6 4 Sudoeste 10 Sudoeste -- -- -- 94
2020-04-01 05:00:00 3.7 6 Oeste 13 Sudoeste -- -- -- 92
2020-04-01 04:00:00 4.5 5 Sudoeste 10 Sudoeste -- -- -- 88
2020-04-01 03:00:00 5.6 5 Sudoeste 9 Sudoeste -- -- -- 88
2020-04-01 02:00:00 6.4 3 Sur 13 Sudeste -- -- -- 87
2020-04-01 01:00:00 6.8 10 Sudeste 25 Sudeste -- -- -- 85
2020-04-01 00:00:00 6.6 14 Sudeste 19 Sudeste -- -- -- 86
2020-03-31 23:00:00 6.9 10 Sudeste 23 Sudeste -- -- -- 85
2020-03-31 22:00:00 8.1 10 Sudeste 15 Sudeste -- -- -- 87
2020-03-31 21:00:00 8.1 10 Este 22 Sudoeste -- -- -- 91
2020-03-31 20:00:00 8.6 14 Nordeste 26 Nordeste -- -- -- 85
2020-03-31 19:00:00 9.5 16 Este 32 Nordeste -- -- -- 77
2020-03-31 18:00:00 9.2 23 Este 31 Este -- -- -- 79
2020-03-31 17:00:00 9.1 22 Este 33 Este -- -- -- 75
2020-03-31 16:00:00 7.4 19 Sudeste 33 Sudeste -- -- -- 79
2020-03-31 15:00:00 7.8 19 Este 36 Este -- -- -- 71
2020-03-31 14:00:00 7.2 27 Este 39 Este -- -- -- 72
2020-03-31 13:00:00 6.4 27 Este 36 Este -- -- -- 68
2020-03-31 12:00:00 4.5 24 Este 36 Este -- -- -- 71
2020-03-31 11:00:00 2.6 24 Este 36 Este -- -- -- 76
2020-03-31 10:00:00 1.3 27 Nordeste 37 Nordeste -- -- -- 80
2020-03-31 09:00:00 0.3 21 Nordeste 34 Nordeste -- -- -- 86
2020-03-31 08:00:00 0 25 Nordeste 41 Nordeste -- -- -- 86
2020-03-31 07:00:00 0.1 23 Nordeste 45 Nordeste -- -- -- 85
2020-03-31 06:00:00 0.3 24 Nordeste 40 Nordeste -- -- -- 83
2020-03-31 05:00:00 0.4 31 Nordeste 42 Nordeste -- -- -- 81
2020-03-31 04:00:00 0.7 24 Nordeste 37 Nordeste -- -- -- 71
2020-03-31 03:00:00 0.4 20 Nordeste 35 Nordeste -- -- -- 71
2020-03-31 02:00:00 0.8 25 Nordeste 35 Nordeste -- -- -- 68
2020-03-31 01:00:00 1.2 24 Nordeste 34 Nordeste -- -- -- 67
2020-03-31 00:00:00 1.4 27 Nordeste 40 Nordeste -- -- -- 65
2020-03-30 23:00:00 2 27 Nordeste 41 Nordeste -- -- -- 63
2020-03-30 22:00:00 2.9 23 Nordeste 36 Nordeste -- -- -- 56
2020-03-30 21:00:00 3.4 23 Nordeste 36 Nordeste -- -- -- 54
2020-03-30 20:00:00 4 27 Nordeste 40 Nordeste -- -- -- 49
2020-03-30 19:00:00 4.8 28 Este 41 Nordeste -- -- -- 49
2020-03-30 18:00:00 5 25 Este 38 Este -- -- -- 48
2020-03-30 17:00:00 4.6 30 Nordeste 40 Nordeste -- -- -- 50
2020-03-30 16:00:00 5.1 28 Nordeste 41 Nordeste -- -- -- 50
2020-03-30 15:00:00 3.3 28 Nordeste 44 Nordeste -- -- -- 59
2020-03-30 14:00:00 3.3 27 Nordeste 42 Nordeste -- -- -- 60
2020-03-30 13:00:00 3.5 28 Este 41 Este -- -- -- 58
2020-03-30 12:00:00 2.8 29 Este 44 Nordeste -- -- -- 62
2020-03-30 11:00:00 2 27 Este 48 Este -- -- -- 70
2020-03-30 10:00:00 2 25 Este 46 Nordeste -- -- -- 71
2020-03-30 09:00:00 2.1 26 Nordeste 41 Este -- -- -- 74
2020-03-30 08:00:00 2.2 30 Nordeste 42 Nordeste -- -- -- 76
2020-03-30 07:00:00 3.1 24 Este 41 Nordeste -- -- -- 76
2020-03-30 06:00:00 3.4 22 Nordeste 39 Nordeste -- -- -- 78
2020-03-30 05:00:00 4.4 24 Nordeste 36 Nordeste -- -- -- 80
2020-03-30 04:00:00 4.5 23 Nordeste 33 Nordeste -- -- -- 82
2020-03-30 03:00:00 5.2 11 Nordeste 26 Este -- -- -- 82
2020-03-30 02:00:00 5.6 19 Este 30 Nordeste -- -- -- 77
2020-03-30 01:00:00 6.2 22 Nordeste 41 Este -- -- -- 74
2020-03-30 00:00:00 7.3 15 Este 41 Este -- -- -- 69
2020-03-29 23:00:00 8.6 28 Este 47 Nordeste -- -- -- 62
2020-03-29 22:00:00 10.5 22 Nordeste 32 Nordeste -- -- -- 55
2020-03-29 21:00:00 12.6 8 Norte 25 Norte -- -- -- 51
2020-03-29 20:00:00 13.1 6 Nordeste 10 Nordeste -- -- -- 60
2020-03-29 19:00:00 14.1 5 Nordeste 16 Nordeste -- -- -- 51
2020-03-29 18:00:00 16.3 9 Nordeste 16 Nordeste -- -- -- 41
2020-03-29 17:00:00 16.8 5 Nordeste 15 Este -- -- -- 42
2020-03-29 16:00:00 16 6 Nordeste 15 Nordeste -- -- -- 42
2020-03-29 15:00:00 14.8 7 Nordeste 17 Nordeste -- -- -- 39
2020-03-29 14:00:00 13.8 6 Norte 14 Norte -- -- -- 55
2020-03-29 13:00:00 12 6 Norte 13 Norte -- -- -- 57
2020-03-29 12:00:00 10.1 2 Este 7 Nordeste -- -- -- 65
2020-03-29 11:00:00 7.8 4 Nordeste 6 Nordeste -- -- -- 68
2020-03-29 10:00:00 5.8 0 Calma 3 Sudoeste -- -- -- 76
2020-03-29 09:00:00 2.4 0 Calma 6 Noroeste -- -- -- 81
2020-03-29 08:00:00 1.8 3 Norte 8 Norte -- -- -- 80
2020-03-29 07:00:00 2.4 5 Norte 8 Norte -- -- -- 74
2020-03-29 06:00:00 3 0 Calma 5 Sudoeste -- -- -- 74
2020-03-29 05:00:00 3 4 Sudoeste 6 Sudoeste -- -- -- 75
2020-03-29 03:00:00 2.9 3 Sudoeste 4 Sudoeste -- -- -- 74
2020-03-29 01:00:00 3.9 0 Calma 6 Sur -- -- -- 69
2020-03-29 00:00:00 4.6 2 Sudoeste 4 Sudoeste -- -- -- 66
2020-03-28 23:00:00 5.2 3 Sudoeste 4 Sudoeste -- -- -- 64
2020-03-28 22:00:00 5.8 0 Calma 4 Sudoeste -- -- -- 66
2020-03-28 21:00:00 7.3 2 Sur 4 Norte -- -- -- 61
2020-03-28 20:00:00 8.5 4 Norte 8 Nordeste -- -- -- 56
2020-03-28 19:00:00 11.1 7 Nordeste 12 Nordeste -- -- -- 53
2020-03-28 18:00:00 13.7 9 Nordeste 23 Este -- -- -- 40
2020-03-28 17:00:00 14.4 10 Este 21 Nordeste -- -- -- 30
2020-03-28 16:00:00 13.9 8 Este 24 Este -- -- -- 30
2020-03-28 15:00:00 13.7 12 Este 29 Este -- -- -- 32
2020-03-28 14:00:00 12.9 13 Este 23 Este -- -- -- 36
2020-03-28 13:00:00 11.5 11 Nordeste 25 Este -- -- -- 51
2020-03-28 12:00:00 10.2 9 Este 18 Este -- -- -- 58
2020-03-28 11:00:00 8.4 7 Este 13 Nordeste -- -- -- 57
2020-03-28 10:00:00 6 4 Nordeste 9 Nordeste -- -- -- 70
2020-03-28 09:00:00 3.8 4 Norte 8 Norte -- -- -- 76
2020-03-28 08:00:00 0.5 0 Calma -- -- -- -- -- 85
2020-03-28 07:00:00 -1 0 Calma -- -- -- -- -- 83
2020-03-28 06:00:00 -0.5 0 Calma -- -- -- -- -- 82
2020-03-28 05:00:00 -0.3 0 Calma -- -- -- -- -- 83
2020-03-28 04:00:00 0.4 0 Calma -- -- -- -- -- 80
2020-03-28 03:00:00 0.8 0 Calma -- -- -- -- -- 78
2020-03-28 02:00:00 1.4 0 Calma -- -- -- -- -- 75
2020-03-28 01:00:00 2.4 0 Calma 4 Sudoeste -- -- -- 70
2020-03-28 00:00:00 3.8 2 Sudoeste 8 Sur -- -- -- 64
2020-03-27 23:00:00 3.3 2 Sudoeste 14 Sur -- -- -- 68
2020-03-27 22:00:00 4.5 12 Sur 16 Sur -- -- -- 65
2020-03-27 21:00:00 5.4 11 Sur 14 Sur -- -- -- 65
2020-03-27 20:00:00 7 10 Sur 19 Sur -- -- -- 58
2020-03-27 19:00:00 10.4 11 Sudeste 23 Este -- -- -- 47
2020-03-27 18:00:00 11.6 11 Sudeste 25 Este -- -- -- 34
2020-03-27 17:00:00 11.5 9 Este 33 Este -- -- -- 35
2020-03-27 16:00:00 10.9 10 Sudeste 29 Este -- -- -- 33
2020-03-27 15:00:00 10.2 15 Sudeste 30 Este -- -- -- 34
2020-03-27 14:00:00 9.5 14 Este 39 Este -- -- -- 42
2020-03-27 13:00:00 8.1 15 Este 32 Este -- -- -- 46
2020-03-27 12:00:00 6.9 19 Nordeste 30 Nordeste -- -- -- 54
2020-03-27 11:00:00 5.4 16 Nordeste 35 Nordeste -- -- -- 54
2020-03-27 10:00:00 3.5 24 Nordeste 32 Este -- -- -- 62
2020-03-27 09:00:00 1 17 Nordeste 26 Nordeste -- -- -- 77
2020-03-27 08:00:00 -0.9 10 Nordeste 14 Nordeste -- -- -- 84
2020-03-27 07:00:00 -1.7 12 Nordeste 16 Nordeste -- -- -- 86
2020-03-27 06:00:00 -0.7 12 Nordeste 23 Este -- -- -- 80
2020-03-27 05:00:00 0.6 16 Nordeste 27 Nordeste -- -- -- 74
2020-03-27 04:00:00 0.7 11 Nordeste 31 Nordeste -- -- -- 74
2020-03-27 03:00:00 1.9 18 Este 25 Nordeste -- -- -- 71
2020-03-27 02:00:00 2.3 16 Nordeste 27 Este -- -- -- 72
2020-03-27 01:00:00 3.1 17 Este 35 Este -- -- -- 74
2020-03-27 00:00:00 4.1 15 Este 25 Este -- -- -- 71
2020-03-26 23:00:00 4.9 14 Este 31 Este -- -- -- 68
2020-03-26 22:00:00 6.3 20 Este 31 Este -- -- -- 66
2020-03-26 21:00:00 8.2 9 Este 14 Sudeste -- -- -- 54
2020-03-26 20:00:00 9.9 11 Sudeste 14 Sudeste -- -- -- 47
2020-03-26 19:00:00 12.3 8 Este 10 Este -- -- -- 40
2020-03-26 18:00:00 13.1 7 Este 15 Este -- -- -- 30
2020-03-26 17:00:00 14 3 Norte 17 Nordeste -- -- -- 31
2020-03-26 16:00:00 13.5 4 Nordeste 15 Norte -- -- -- 37
2020-03-26 15:00:00 12.8 7 Norte 21 Nordeste -- -- -- 40
2020-03-26 14:00:00 11.8 5 Nordeste 16 Norte -- -- -- 42
2020-03-26 13:00:00 10.9 4 Sur 13 Nordeste -- -- -- 44
2020-03-26 12:00:00 10 5 Sudeste 16 Sudeste -- -- -- 50
2020-03-26 11:00:00 8.4 10 Sudeste 17 Sudeste -- -- -- 48
2020-03-26 10:00:00 6.7 9 Sudeste 14 Sudeste -- -- -- 54
2020-03-26 09:00:00 4.3 5 Sudeste 9 Sudeste -- -- -- 67
2020-03-26 08:00:00 0.4 0 Calma 8 Este -- -- -- 82
2020-03-26 07:00:00 -0.2 0 Calma 8 Este -- -- -- 82
2020-03-26 06:00:00 1.4 0 Calma 14 Este -- -- -- 78
2020-03-26 05:00:00 1.9 7 Este 9 Este -- -- -- 75
2020-03-26 04:00:00 2.2 3 Sudoeste 4 Sudoeste -- -- -- 77
2020-03-26 03:00:00 2.9 3 Sudoeste 4 Sudoeste -- -- -- 78
2020-03-26 02:00:00 3 0 Calma 5 Sudoeste -- -- -- 79
2020-03-26 01:00:00 5.3 5 Noroeste 16 Norte -- -- -- 71
2020-03-26 00:00:00 7.2 15 Norte 26 Norte -- -- -- 65
2020-03-25 23:00:00 8.6 10 Norte 25 Noroeste -- -- -- 63
2020-03-25 22:00:00 10.1 13 Oeste 27 Sudoeste -- -- -- 77
2020-03-25 21:00:00 10.7 11 Sudoeste 26 Sudoeste -- -- -- 73
2020-03-25 20:00:00 11.5 10 Sudoeste 22 Sudoeste -- -- -- 70
2020-03-25 19:00:00 13.5 14 Sudoeste 24 Sudoeste -- -- -- 64
2020-03-25 18:00:00 14.7 18 Sudoeste 27 Sudoeste -- -- -- 59
2020-03-25 17:00:00 17.9 9 Noroeste 20 Noroeste -- -- -- 43
2020-03-25 16:00:00 16.9 9 Norte 27 Norte -- -- -- 45
2020-03-25 15:00:00 17.3 17 Norte 31 Norte -- -- -- 43
2020-03-25 14:00:00 16.3 12 Norte 32 Noroeste -- -- -- 54
2020-03-25 13:00:00 15.5 14 Noroeste 26 Oeste -- -- -- 55
2020-03-25 12:00:00 14.1 10 Oeste 16 Oeste -- -- -- 61
2020-03-25 11:00:00 12.1 7 Oeste 13 Noroeste -- -- -- 59
2020-03-25 10:00:00 10.1 5 Oeste 8 Oeste -- -- -- 74
2020-03-25 09:00:00 5.8 2 Sudoeste 5 Sudoeste -- -- -- 91
2020-03-25 08:00:00 2.6 4 Sudoeste 6 Sudoeste -- -- -- 91
2020-03-25 07:00:00 2.3 2 Sudoeste -- -- -- -- -- 93
2020-03-25 06:00:00 2.5 2 Sudoeste -- -- -- -- -- 91
2020-03-25 05:00:00 2.7 0 Calma 3 Sudoeste -- -- -- 91
2020-03-25 04:00:00 3.2 0 Calma 4 Sudoeste -- -- -- 90
2020-03-25 03:00:00 3.5 0 Calma 4 Sudoeste -- -- -- 89
2020-03-25 02:00:00 4.4 0 Calma 4 Oeste -- -- -- 87
2020-03-25 01:00:00 5.8 0 Calma 9 Sudeste -- -- -- 81
2020-03-25 00:00:00 8.4 5 Este 10 Este -- -- -- 71
2020-03-24 23:00:00 5.8 6 Este 8 Este -- -- -- 85
2020-03-24 22:00:00 6 6 Nordeste 12 Nordeste -- -- -- 86
2020-03-24 21:00:00 8.3 11 Nordeste 15 Nordeste -- -- -- 79
2020-03-24 20:00:00 9.7 12 Nordeste 20 Nordeste -- -- -- 74
2020-03-24 19:00:00 13.1 15 Nordeste 22 Nordeste -- -- -- 62
2020-03-24 18:00:00 14.7 14 Nordeste 26 Nordeste -- -- -- 57
2020-03-24 17:00:00 15 13 Nordeste 23 Nordeste -- -- -- 54
2020-03-24 16:00:00 14.6 15 Nordeste 22 Nordeste -- -- -- 58
2020-03-24 15:00:00 13.7 13 Este 23 Este -- -- -- 59
2020-03-24 14:00:00 13.9 13 Este 24 Este -- -- -- 58
2020-03-24 13:00:00 13.2 13 Este 27 Nordeste -- -- -- 64
2020-03-24 12:00:00 11.7 17 Este 30 Este -- -- -- 71
2020-03-24 11:00:00 10.2 15 Este 24 Este -- -- -- 80
2020-03-24 10:00:00 8.4 17 Este 34 Este -- -- -- 86
2020-03-24 09:00:00 6.6 8 Nordeste 16 Nordeste -- -- -- 97
2020-03-24 08:00:00 3.6 6 Nordeste 12 Nordeste -- -- -- 98
2020-03-24 07:00:00 2.6 6 Nordeste 11 Nordeste -- -- -- 95
2020-03-24 06:00:00 2.4 4 Nordeste 6 Nordeste -- -- -- 96
2020-03-24 05:00:00 2.9 0 Calma 4 Sudoeste -- -- -- 96
2020-03-24 04:00:00 2.7 0 Calma 6 Nordeste -- -- -- 96
2020-03-24 03:00:00 3.2 6 Nordeste 8 Nordeste -- -- -- 94
2020-03-24 02:00:00 3.6 0 Calma 7 Este -- -- -- 93
2020-03-24 01:00:00 5 9 Este 10 Este -- -- -- 89
2020-03-24 00:00:00 6.2 6 Este 10 Sudeste -- -- -- 87
2020-03-23 23:00:00 7.3 6 Este 14 Sudeste -- -- -- 84
2020-03-23 22:00:00 8 5 Sudeste 13 Sudeste -- -- -- 89
2020-03-23 21:00:00 8.2 9 Norte 12 Norte -- -- -- 91
2020-03-23 20:00:00 8.3 9 Norte 10 Nordeste -- -- -- 88
2020-03-23 19:00:00 10.9 4 Este 13 Este -- -- -- 77
2020-03-23 18:00:00 12.5 6 Sudeste 15 Sur -- -- -- 69
2020-03-23 17:00:00 10.7 16 Sudeste 37 Sudeste -- -- -- 82
2020-03-23 16:00:00 13.1 18 Este 32 Este -- -- -- 61
2020-03-23 15:00:00 13.5 17 Nordeste 26 Nordeste -- -- -- 65
2020-03-23 14:00:00 12.4 16 Nordeste 33 Nordeste -- -- -- 71
2020-03-23 13:00:00 11.7 14 Nordeste 23 Nordeste -- -- -- 75
2020-03-23 12:00:00 10.2 12 Nordeste 21 Nordeste -- -- -- 83
2020-03-23 11:00:00 8.1 8 Nordeste 19 Nordeste -- -- -- 88
2020-03-23 10:00:00 7.8 6 Norte 11 Nordeste -- -- -- 90
2020-03-23 09:00:00 5.1 3 Nordeste 6 Norte -- -- -- 99
2020-03-23 08:00:00 2.9 5 Norte 8 Norte -- -- -- 97
2020-03-23 07:00:00 3 7 Nordeste 10 Nordeste -- -- -- 96
2020-03-23 06:00:00 3.3 6 Nordeste 13 Nordeste -- -- -- 95
2020-03-23 05:00:00 3.6 6 Nordeste 13 Este -- -- -- 96
2020-03-23 04:00:00 4.6 9 Nordeste 12 Nordeste -- -- -- 96
2020-03-23 03:00:00 5.2 9 Nordeste 12 Nordeste -- -- -- 95
2020-03-23 02:00:00 5.6 8 Norte 9 Norte -- -- -- 94
2020-03-23 01:00:00 6.4 5 Norte 9 Noroeste -- -- -- 93
2020-03-23 00:00:00 7 7 Norte 11 Norte -- -- -- 94
2020-03-22 23:00:00 6.4 0 Calma 6 Sur -- -- -- 94
2020-03-22 22:00:00 6.6 0 Calma 7 Este -- -- -- 92
2020-03-22 21:00:00 7.7 3 Nordeste 9 Nordeste -- -- -- 90
2020-03-22 20:00:00 8 6 Nordeste 19 Nordeste -- -- -- 88
2020-03-22 19:00:00 8.9 9 Este 35 Nordeste -- -- -- 84
2020-03-22 18:00:00 9.9 5 Nordeste 29 Nordeste -- -- -- 80
2020-03-22 17:00:00 11.5 25 Norte 32 Norte -- -- -- 73
2020-03-22 16:00:00 12.9 6 Nordeste 12 Nordeste -- -- -- 67
2020-03-22 15:00:00 11.2 9 Este 15 Este -- -- -- 74
2020-03-22 14:00:00 10.4 9 Nordeste 13 Nordeste -- -- -- 77
2020-03-22 13:00:00 9.3 6 Nordeste 11 Nordeste -- -- -- 82
2020-03-22 12:00:00 7.9 4 Nordeste 10 Este -- -- -- 83
2020-03-22 11:00:00 7.6 6 Este 12 Este -- -- -- 89
2020-03-22 10:00:00 6.8 7 Este 12 Este -- -- -- 93
2020-03-22 09:00:00 6.2 6 Este 12 Este -- -- -- 97
2020-03-22 08:00:00 5.7 8 Este 13 Este -- -- -- 98
2020-03-22 07:00:00 5.4 8 Nordeste 14 Nordeste -- -- -- 98
2020-03-22 06:00:00 5.4 7 Nordeste 10 Norte -- -- -- 97
2020-03-22 05:00:00 5.9 8 Nordeste 13 Nordeste -- -- -- 97
2020-03-22 04:00:00 6 7 Norte 9 Norte -- -- -- 97
2020-03-22 03:00:00 6.4 10 Nordeste 13 Nordeste -- -- -- 97
2020-03-22 02:00:00 6.9 9 Norte 13 Norte -- -- -- 97
2020-03-22 01:00:00 6.9 7 Norte 10 Norte -- -- -- 96
2020-03-22 00:00:00 6.9 5 Noroeste 8 Noroeste -- -- -- 96
2020-03-21 23:00:00 7 5 Norte 9 Norte -- -- -- 96
2020-03-21 22:00:00 7.4 4 Norte 7 Norte -- -- -- 96
2020-03-21 21:00:00 7.4 4 Norte 6 Norte -- -- -- 96
2020-03-21 20:00:00 7.6 4 Norte 15 Noroeste -- -- -- 95
2020-03-21 19:00:00 7.9 9 Norte 14 Norte -- -- -- 93
2020-03-21 18:00:00 8.3 6 Oeste 12 Sur -- -- -- 90
2020-03-21 17:00:00 9.1 8 Sur 12 Sur -- -- -- 84
2020-03-21 16:00:00 10.1 6 Oeste 15 Oeste -- -- -- 77
2020-03-21 15:00:00 9.6 12 Oeste 21 Sudoeste -- -- -- 86
2020-03-21 14:00:00 9.3 9 Sudoeste 15 Sudoeste -- -- -- 83
2020-03-21 13:00:00 8.5 11 Oeste 18 Sudoeste -- -- -- 90
2020-03-21 12:00:00 8.8 14 Sur 32 Sudeste -- -- -- 88
2020-03-21 11:00:00 8.2 23 Sudeste 35 Sur -- -- -- 89
2020-03-21 10:00:00 8.2 16 Sudeste 25 Sudeste -- -- -- 88
2020-03-21 09:00:00 7.8 7 Este 15 Este -- -- -- 89
2020-03-21 08:00:00 6.7 6 Este 20 Sudeste -- -- -- 91
2020-03-21 07:00:00 7.1 17 Sudeste 26 Sudeste -- -- -- 89
2020-03-21 06:00:00 7.3 19 Sudeste 35 Sudeste -- -- -- 88
2020-03-21 05:00:00 7.6 22 Sudeste 30 Sudeste -- -- -- 87
2020-03-21 04:00:00 8 19 Sudeste 36 Sudeste -- -- -- 84
2020-03-21 03:00:00 8.4 18 Sudeste 37 Sudeste -- -- -- 86
2020-03-21 02:00:00 8.7 20 Sudeste 32 Sudeste -- -- -- 83
2020-03-21 01:00:00 8.7 18 Sudeste 26 Sudeste -- -- -- 82
2020-03-21 00:00:00 8.1 10 Este 16 Sudeste -- -- -- 86
2020-03-20 23:00:00 8.3 5 Este 14 Sudeste -- -- -- 84
2020-03-20 22:00:00 8.8 5 Este 30 Sudeste -- -- -- 83
2020-03-20 21:00:00 9.4 16 Sudeste 30 Sudeste -- -- -- 80
2020-03-20 20:00:00 9.9 13 Sudeste 23 Sudeste -- -- -- 80
2020-03-20 19:00:00 11.2 3 Este 9 Este -- -- -- 79
2020-03-20 18:00:00 10.9 5 Nordeste 12 Oeste -- -- -- 78
2020-03-20 17:00:00 11.3 8 Oeste 21 Oeste -- -- -- 76
2020-03-20 16:00:00 10.9 13 Oeste 26 Oeste -- -- -- 80
2020-03-20 15:00:00 12.8 15 Oeste 28 Oeste -- -- -- 78
2020-03-20 14:00:00 12.8 14 Sudoeste -- -- -- -- -- 75
2020-03-20 13:00:00 -- -- -- -- -- -- -- -- --
2020-03-20 12:00:00 12.9 9 Sudeste 16 Sudeste -- -- -- 72
2020-03-20 11:00:00 12.4 9 Sudeste 13 Sudeste -- -- -- 75
2020-03-20 10:00:00 10.6 3 Sudeste 8 Sudeste -- -- -- 81
2020-03-20 09:00:00 8 0 Calma 8 Este 0 -- -- 91
2020-03-20 08:00:00 7.2 3 Este 5 Nordeste 0 -- -- 91
2020-03-20 07:00:00 7.9 2 Oeste 6 Oeste 0 -- -- 87
2020-03-20 06:00:00 8.4 4 Sur 10 Sur 0 -- -- 86
2020-03-20 05:00:00 8.3 4 Sudeste 12 Sudeste 0 -- -- 88
2020-03-20 04:00:00 8.4 4 Sur 8 Este 0 -- -- 92
2020-03-20 03:00:00 9 3 Sur 13 Sur 0 -- -- 89
2020-03-20 02:00:00 9 4 Sur 8 Sudeste 0 -- -- 87
2020-03-20 01:00:00 9.4 9 Sudeste 15 Sudeste 0 -- -- 82
2020-03-20 00:00:00 9.6 3 Sur 20 Sudeste 0 -- -- 81
2020-03-19 23:00:00 10.5 15 Sudeste 22 Sudeste 0 -- -- 75
2020-03-19 22:00:00 10.7 9 Sudeste 19 Sudeste 0 -- -- 75
2020-03-19 21:00:00 10.9 15 Sudeste 20 Sudeste 0 -- -- 77
2020-03-19 20:00:00 11 9 Este 15 Este 0 -- -- 77
2020-03-19 19:00:00 11.5 10 Este 15 Este 0 -- -- 75
2020-03-19 18:00:00 12.1 7 Este 14 Este 0 -- -- 78
2020-03-19 17:00:00 13 9 Este 17 Este 0 -- -- 68
2020-03-19 16:00:00 13.9 6 Este 15 Sudeste 0 -- -- 64
2020-03-19 15:00:00 13.8 12 Sudeste 16 Sudeste 0 -- -- 63
2020-03-19 14:00:00 14 10 Sudeste 17 Este 0 -- -- 59
2020-03-19 13:00:00 12.5 5 Este 9 Este 0 -- -- 73
2020-03-19 12:00:00 11.5 3 Este 8 Este 0 -- -- 74
2020-03-19 11:00:00 9.7 5 Nordeste 8 Nordeste 0 -- -- 89
2020-03-19 10:00:00 8 4 Norte 9 Norte 0 -- -- 95
2020-03-19 09:00:00 7.2 5 Norte 9 Norte 0 -- -- 96
2020-03-19 08:00:00 6 0 Calma 5 Noroeste 0 -- -- 95
2020-03-19 07:00:00 6.2 0 Calma 3 Noroeste 0 -- -- 93
2020-03-19 06:00:00 6.5 0 Calma 0 Calma 0 -- -- 92
2020-03-19 05:00:00 6.7 0 Calma 3 Sur 0 -- -- 89
2020-03-19 04:00:00 6.6 0 Calma 4 Este 0 -- -- 90
2020-03-19 03:00:00 7.7 5 Nordeste 6 Nordeste 0 -- -- 87
2020-03-19 02:00:00 7.9 3 Sudoeste 5 Nordeste 0 -- -- 87
2020-03-19 01:00:00 8.5 2 Nordeste 3 Nordeste 0 -- -- 84
2020-03-19 00:00:00 10.5 3 Sudeste 11 Sudeste 0 -- -- 75
2020-03-18 23:00:00 11.6 7 Sudeste 12 Sudeste 0 -- -- 71
2020-03-18 22:00:00 12.2 8 Sudeste 10 Sudeste 0 -- -- 81
2020-03-18 21:00:00 11.3 0 Calma 10 Nordeste 0 -- -- 84
2020-03-18 20:00:00 11.9 9 Nordeste 11 Nordeste 0 -- -- 88
2020-03-18 19:00:00 13.6 10 Nordeste 11 Nordeste 0 -- -- 84
2020-03-18 18:00:00 15.1 9 Este 21 Este 0 -- -- 76
2020-03-18 17:00:00 15.6 11 Este 19 Este 0 -- -- 69
2020-03-18 16:00:00 14.5 12 Nordeste 20 Nordeste 0 -- -- 74
2020-03-18 15:00:00 14.6 11 Nordeste 23 Nordeste 0 -- -- 76
2020-03-18 14:00:00 13.2 13 Nordeste 19 Nordeste 0 -- -- 80
2020-03-18 13:00:00 11.6 12 Nordeste 18 Nordeste 0 -- -- 86
2020-03-18 12:00:00 10.3 9 Norte 14 Nordeste 0 -- -- 92
2020-03-18 11:00:00 8.4 11 Nordeste 15 Nordeste 0 -- -- 98
2020-03-18 10:00:00 7 8 Nordeste 11 Nordeste 0 -- -- 99
2020-03-18 09:00:00 5.9 9 Nordeste 12 Nordeste 0 -- -- 99
2020-03-18 08:00:00 4.7 0 Calma 10 Nordeste 0 -- -- 98
2020-03-18 07:00:00 4.8 6 Norte 8 Norte 0 -- -- 98
2020-03-18 06:00:00 4.1 0 Calma 9 Norte 0 -- -- 97
2020-03-18 05:00:00 4.6 3 Nordeste 8 Norte 0 -- -- 96
2020-03-18 04:00:00 4.7 8 Norte 10 Norte 0 -- -- 97
2020-03-18 03:00:00 4.9 7 Nordeste 14 Nordeste 0 -- -- 96
2020-03-18 02:00:00 6.3 3 Nordeste 17 Nordeste 0 -- -- 95
2020-03-18 01:00:00 8.2 12 Este 18 Sudeste 0 -- -- 92
2020-03-18 00:00:00 8.3 9 Este 19 Este 0 -- -- 93
2020-03-17 23:00:00 8.6 13 Este 22 Este 0 -- -- 93
2020-03-17 22:00:00 9.1 13 Nordeste 22 Este 0 -- -- 92
2020-03-17 21:00:00 10.5 3 Nordeste 20 Nordeste 0 -- -- 89
2020-03-17 20:00:00 11.4 12 Nordeste 17 Nordeste 0 -- -- 82
2020-03-17 19:00:00 12.5 8 Nordeste 20 Este 0 -- -- 80
2020-03-17 18:00:00 14 10 Este 23 Este 0 -- -- 74
2020-03-17 17:00:00 14.4 12 Este 20 Este 0 -- -- 70
2020-03-17 16:00:00 13.4 6 Sudeste 23 Nordeste 0 -- -- 74
2020-03-17 15:00:00 12.4 17 Nordeste 31 Nordeste 0 -- -- 80
2020-03-17 14:00:00 11.8 18 Nordeste 27 Nordeste 0 -- -- 83
2020-03-17 13:00:00 10 17 Este 32 Nordeste 0 -- -- 85
2020-03-17 12:00:00 8.6 22 Este 34 Nordeste 0 -- -- 88
2020-03-17 11:00:00 8 24 Nordeste 32 Nordeste 0 -- -- 89
2020-03-17 10:00:00 6.9 21 Nordeste 30 Nordeste 0 -- -- 93
2020-03-17 09:00:00 5.9 17 Nordeste 24 Nordeste 0 -- -- 96
2020-03-17 08:00:00 5.2 13 Nordeste 19 Nordeste 0 -- -- 97
2020-03-17 07:00:00 4.8 14 Nordeste 33 Nordeste 0 -- -- 97
2020-03-17 06:00:00 4.9 22 Nordeste 39 Nordeste 0 -- -- 97
2020-03-17 05:00:00 4.5 22 Nordeste 34 Nordeste 0 -- -- 97
2020-03-17 04:00:00 4.4 10 Este 23 Este 0 -- -- 96
2020-03-17 03:00:00 4.6 17 Este 30 Nordeste 0 -- -- 96
2020-03-17 02:00:00 4.7 17 Nordeste 36 Nordeste 0 -- -- 95
2020-03-17 01:00:00 4.9 28 Nordeste 39 Nordeste 0 -- -- 92
2020-03-17 00:00:00 5 26 Nordeste 47 Nordeste 0 -- -- 88
2020-03-16 23:00:00 4.9 35 Nordeste 51 Nordeste 0 -- -- 87
2020-03-16 22:00:00 4.6 35 Nordeste 53 Nordeste 0 -- -- 87
2020-03-16 21:00:00 4.8 32 Nordeste 51 Norte 0 -- -- 86
2020-03-16 20:00:00 5.2 36 Nordeste 63 Nordeste 0 -- -- 82
2020-03-16 19:00:00 5.1 44 Nordeste 66 Nordeste 0 -- -- 83
2020-03-16 18:00:00 5.3 47 Nordeste 70 Nordeste 0 -- -- 82
2020-03-16 17:00:00 5.2 36 Nordeste 60 Nordeste 0 -- -- 83
2020-03-16 16:00:00 4.8 35 Nordeste 45 Nordeste 0 -- -- 84
2020-03-16 15:00:00 3.9 33 Norte 58 Norte 0 -- -- 84
2020-03-16 14:00:00 4 25 Norte 48 Norte 0 -- -- 85
2020-03-16 13:00:00 2.7 16 Norte 29 Norte 0 -- -- 93
2020-03-16 12:00:00 1.1 15 Norte 21 Norte 0 -- -- 97
2020-03-16 11:00:00 0.5 0 Calma 16 Norte 0 -- -- 97
2020-03-16 10:00:00 0.4 10 Norte 21 Norte 0 -- -- 98
2020-03-16 09:00:00 0.1 15 Norte 30 Norte 0 -- -- 98
2020-03-16 08:00:00 0.1 22 Norte 33 Noroeste 0 -- -- 97
2020-03-16 07:00:00 0 19 Noroeste 28 Noroeste 0 -- -- 97
2020-03-16 06:00:00 0 19 Noroeste 31 Noroeste 0 -- -- 97
2020-03-16 05:00:00 0.2 19 Noroeste 27 Noroeste 0 -- -- 96
2020-03-16 04:00:00 0.6 16 Noroeste 27 Noroeste 0 -- -- 96
2020-03-16 03:00:00 1.4 18 Noroeste 27 Noroeste 0 -- -- 95
2020-03-16 02:00:00 1.3 11 Noroeste 23 Noroeste 0 -- -- 95
2020-03-16 01:00:00 1.8 18 Noroeste 27 Noroeste 0 -- -- 94
2020-03-16 00:00:00 2.3 17 Noroeste 32 Norte 0 -- -- 94
2020-03-15 23:00:00 2.7 16 Noroeste 33 Noroeste 0 -- -- 91
2020-03-15 22:00:00 4.4 23 Noroeste 45 Noroeste 0 -- -- 85
2020-03-15 21:00:00 5.6 29 Noroeste 57 Oeste 0 -- -- 78
2020-03-15 20:00:00 9.6 19 Oeste 30 Oeste 0 -- -- 58
2020-03-15 19:00:00 11.2 15 Oeste 33 Oeste 0 -- -- 59
2020-03-15 18:00:00 12.2 26 Oeste 45 Oeste 0 -- -- 59
2020-03-15 17:00:00 13.9 28 Oeste 42 Oeste 0 -- -- 61
2020-03-15 16:00:00 15.2 28 Oeste 45 Oeste 0 -- -- 55
2020-03-15 15:00:00 16.5 30 Oeste 50 Oeste 0 -- -- 53
2020-03-15 14:00:00 17.8 28 Sudoeste 44 Sudoeste 0 -- -- 53
2020-03-15 13:00:00 16.3 22 Sudoeste 37 Oeste 0 -- -- 56
2020-03-15 12:00:00 16.1 22 Sudoeste 33 Oeste 0 -- -- 48
2020-03-15 11:00:00 14.4 14 Sudoeste 23 Sudoeste 0 -- -- 44
2020-03-15 10:00:00 11.6 13 Sudoeste 21 Sudoeste 0 -- -- 57
2020-03-15 09:00:00 7 5 Sudoeste 9 Sudoeste 0 -- -- 73
2020-03-15 08:00:00 3 0 Calma 3 Sudoeste 0 -- -- 69
2020-03-15 07:00:00 2.5 2 Sudoeste 4 Sudoeste 0 -- -- 68
2020-03-15 06:00:00 3.1 2 Sudoeste 5 Sudoeste 0 -- -- 65
2020-03-15 05:00:00 3.2 2 Sudoeste 4 Sudoeste 0 -- -- 66
2020-03-15 04:00:00 3.7 2 Sudoeste 3 Sudoeste 0 -- -- 64
2020-03-15 03:00:00 3.2 0 Calma 2 Sudoeste 0 -- -- 66
2020-03-15 02:00:00 3.8 0 Calma 4 Sudoeste 0 -- -- 65
2020-03-15 01:00:00 4.7 3 Sudoeste 4 Sudoeste 0 -- -- 62
2020-03-15 00:00:00 4.9 0 Calma 4 Sudoeste 0 -- -- 63
2020-03-14 23:00:00 5.1 3 Sudoeste 5 Sudoeste 0 -- -- 64
2020-03-14 22:00:00 6 2 Sudoeste -- -- 0 -- -- 61
2020-03-14 21:00:00 7.7 2 Sudeste 4 Nordeste 0 -- -- 54
2020-03-14 20:00:00 7.6 4 Nordeste 6 Nordeste 0 -- -- 63
2020-03-14 19:00:00 14.4 6 Nordeste 8 Norte 0 -- -- 45
2020-03-14 18:00:00 16.8 6 Norte 13 Norte 0 -- -- 31
2020-03-14 17:00:00 17.2 6 Nordeste 14 Este 0 -- -- 28
2020-03-14 16:00:00 17 4 Nordeste 14 Este 0 -- -- 32
2020-03-14 15:00:00 16.3 6 Este 15 Nordeste 0 -- -- 30
2020-03-14 14:00:00 14.4 7 Este 17 Nordeste 0 -- -- 42
2020-03-14 13:00:00 12.3 9 Nordeste 17 Este 0 -- -- 57
2020-03-14 12:00:00 10.2 10 Nordeste 15 Nordeste 0 -- -- 62
2020-03-14 11:00:00 8 8 Nordeste 14 Este 0 -- -- 72
2020-03-14 10:00:00 6.9 5 Nordeste 11 Nordeste 0 -- -- 80
2020-03-14 09:00:00 3.3 0 Calma 2 Noroeste 0 -- -- 98
2020-03-14 08:00:00 0.3 0 Calma -- -- 0 -- -- 96
2020-03-14 07:00:00 0.5 0 Calma -- -- 0 -- -- 96
2020-03-14 06:00:00 1 0 Calma -- -- 0 -- -- 95
2020-03-14 05:00:00 1.6 0 Calma -- -- 0 -- -- 95
2020-03-14 04:00:00 2 0 Calma 5 Norte 0 -- -- 94
2020-03-14 03:00:00 2.2 0 Calma 6 Nordeste 0 -- -- 90
2020-03-14 02:00:00 3.5 4 Nordeste 13 Nordeste 0 -- -- 91
2020-03-14 01:00:00 4.5 7 Nordeste 11 Nordeste 0 -- -- 89
2020-03-14 00:00:00 5.4 3 Este 18 Nordeste 0 -- -- 87
2020-03-13 23:00:00 6.1 14 Nordeste 15 Nordeste 0 -- -- 89
2020-03-13 22:00:00 6.8 9 Nordeste 19 Norte 0 -- -- 87
2020-03-13 21:00:00 8.5 11 Nordeste 14 Norte 0 -- -- 82
2020-03-13 20:00:00 9.8 11 Nordeste 23 Norte 0 -- -- 78
2020-03-13 19:00:00 12.6 18 Norte 26 Norte 0 -- -- 69
2020-03-13 18:00:00 14.2 16 Norte 27 Norte 0 -- -- 65
2020-03-13 17:00:00 14.6 16 Norte 26 Norte 0 -- -- 65
2020-03-13 16:00:00 15.1 11 Nordeste 24 Norte 0 -- -- 64
2020-03-13 15:00:00 14.6 14 Nordeste 24 Nordeste 0 -- -- 65
2020-03-13 14:00:00 14.3 16 Nordeste 25 Norte 0 -- -- 68
2020-03-13 13:00:00 13.4 15 Nordeste 26 Nordeste 0 -- -- 69
2020-03-13 12:00:00 11.5 13 Nordeste 25 Este 0 -- -- 76
2020-03-13 11:00:00 9.2 16 Nordeste 26 Nordeste 0 -- -- 83
2020-03-13 10:00:00 8.1 17 Nordeste 28 Nordeste 0 -- -- 87
2020-03-13 09:00:00 7 17 Nordeste 28 Nordeste 0 -- -- 91
2020-03-13 08:00:00 6 9 Nordeste 17 Nordeste 0 -- -- 94
2020-03-13 07:00:00 5.8 10 Nordeste 16 Nordeste 0 -- -- 95
2020-03-13 06:00:00 5.9 10 Nordeste 15 Nordeste 0 -- -- 94
2020-03-13 05:00:00 7.1 10 Nordeste 17 Nordeste 0 -- -- 93
2020-03-13 04:00:00 7.4 12 Nordeste 17 Nordeste 0 -- -- 94
2020-03-13 03:00:00 6.8 6 Nordeste 12 Nordeste 0 -- -- 94
2020-03-13 02:00:00 7 9 Nordeste 13 Nordeste 0 -- -- 93
2020-03-13 01:00:00 7.8 10 Nordeste 13 Nordeste 0 -- -- 92
2020-03-13 00:00:00 8.8 6 Este 17 Nordeste 0 -- -- 90
2020-03-12 23:00:00 10.2 12 Nordeste 21 Nordeste 0 -- -- 87
2020-03-12 22:00:00 13.2 14 Nordeste 19 Nordeste 0 -- -- 80
2020-03-12 21:00:00 13.9 0 Calma 4 Sudoeste 0 -- -- 78
2020-03-12 20:00:00 15.1 2 Sudoeste 4 Nordeste 0 -- -- 73
2020-03-12 19:00:00 17 3 Norte 8 Norte 0 -- -- 69
2020-03-12 18:00:00 18.2 7 Norte 13 Norte 0 -- -- 64
2020-03-12 17:00:00 19 10 Norte 15 Norte 0 -- -- 58
2020-03-12 16:00:00 19.1 10 Norte 18 Norte 0 -- -- 53
2020-03-12 15:00:00 20.2 14 Norte 18 Norte 0 -- -- 51
2020-03-12 14:00:00 20.3 10 Norte 19 Norte 0 -- -- 56
2020-03-12 13:00:00 19.1 10 Norte 15 Norte 0 -- -- 59
2020-03-12 12:00:00 20.2 6 Sudeste 10 Sudeste 0 -- -- 46
2020-03-12 11:00:00 16.7 3 Sudeste 5 Norte 0 -- -- 57
2020-03-12 10:00:00 14.5 2 Este 6 Sur 0 -- -- 64
2020-03-12 09:00:00 10.7 2 Sur 6 Sur 0 -- -- 79
2020-03-12 08:00:00 10 0 Calma 4 Norte 0 -- -- 78
2020-03-12 07:00:00 10.3 2 Sudoeste 3 Sudoeste 0 -- -- 78
2020-03-12 06:00:00 11.3 0 Calma 4 Sudeste 0 -- -- 75
2020-03-12 05:00:00 11.1 0 Calma 5 Sudoeste 0 -- -- 78
2020-03-12 04:00:00 11.8 0 Calma 4 Sudoeste 0 -- -- 78
2020-03-12 03:00:00 12.4 3 Sudoeste 5 Sudoeste 0 -- -- 74
2020-03-12 02:00:00 12.8 3 Sudoeste 6 Sudoeste 0 -- -- 74
2020-03-12 01:00:00 12.8 4 Sudoeste 7 Sur 0 -- -- 73
2020-03-12 00:00:00 13.6 4 Sudoeste 6 Sudoeste 0 -- -- 68
2020-03-11 23:00:00 14.1 0 Calma 4 Sudoeste 0 -- -- 68
2020-03-11 22:00:00 14.9 0 Calma 4 Sudoeste 0 -- -- 69
2020-03-11 21:00:00 16.3 3 Sudoeste 5 Sudoeste 0 -- -- 61
2020-03-11 20:00:00 17.5 2 Sur 3 Noroeste 0 -- -- 60
2020-03-11 19:00:00 19.6 4 Sudoeste 14 Oeste 0 -- -- 52
2020-03-11 18:00:00 21.6 11 Oeste 21 Oeste 0 -- -- 43
2020-03-11 17:00:00 23.4 14 Oeste 24 Oeste 0 -- -- 38
2020-03-11 16:00:00 23.4 14 Oeste 24 Oeste 0 -- -- 38
2020-03-11 15:00:00 23 15 Oeste 27 Oeste 0 -- -- 35
2020-03-11 14:00:00 21.9 9 Oeste 24 Sudoeste 0 -- -- 44
2020-03-11 13:00:00 20.8 11 Sudoeste 20 Sudoeste 0 -- -- 47
2020-03-11 12:00:00 19.6 5 Sudeste 9 Sudeste 0 -- -- 46
2020-03-11 11:00:00 18.1 2 Este 5 Este 0 -- -- 40
2020-03-11 10:00:00 14.8 0 Calma 3 Sur 0 -- -- 48
2020-03-11 09:00:00 9.3 0 Calma 4 Sudoeste 0 -- -- 74
2020-03-11 08:00:00 5.9 2 Sudoeste 4 Sudoeste 0 -- -- 87
2020-03-11 07:00:00 6.1 2 Sur 6 Sudoeste 0 -- -- 89
2020-03-11 06:00:00 6.8 5 Sudoeste 10 Sudoeste 0 -- -- 86
2020-03-11 05:00:00 7.7 2 Sudoeste 8 Sudoeste 0 -- -- 85
2020-03-11 04:00:00 7.8 4 Oeste 10 Sudoeste 0 -- -- 87
2020-03-11 03:00:00 8.8 5 Sudoeste 9 Sudoeste 0 -- -- 84
2020-03-11 02:00:00 9.3 5 Sudoeste 9 Sudoeste 0 -- -- 79
2020-03-11 01:00:00 9.5 6 Sudoeste 11 Sudoeste 0 -- -- 74
2020-03-11 00:00:00 10.2 5 Sudoeste 10 Sudoeste 0 -- -- 68
2020-03-10 23:00:00 10.3 7 Sudoeste 10 Sudoeste 0 -- -- 67
2020-03-10 22:00:00 11 3 Sur 6 Sudoeste 0 -- -- 70
2020-03-10 21:00:00 11.8 3 Sudoeste 6 Sudoeste 0 -- -- 69
2020-03-10 20:00:00 14.6 3 Sudoeste 12 Oeste 0 -- -- 62
2020-03-10 19:00:00 18.1 14 Oeste 28 Oeste 0 -- -- 57
2020-03-10 18:00:00 20.1 19 Oeste 28 Oeste 0 -- -- 48
2020-03-10 17:00:00 20.8 16 Oeste 27 Oeste 0 -- -- 49
2020-03-10 16:00:00 20.5 18 Sudoeste 27 Sudoeste 0 -- -- 49
2020-03-10 15:00:00 19.4 16 Sudoeste 26 Sudoeste 0 -- -- 53
2020-03-10 14:00:00 18.6 13 Sudoeste 22 Sudoeste 0 -- -- 51
2020-03-10 13:00:00 17.3 14 Sudoeste 20 Sudoeste 0 -- -- 56
2020-03-10 12:00:00 15.7 10 Sudoeste 15 Sudoeste 0 -- -- 57
2020-03-10 11:00:00 13.4 9 Sudoeste 14 Oeste 0 -- -- 62
2020-03-10 10:00:00 10.8 4 Oeste 9 Sudoeste 0 -- -- 75
2020-03-10 09:00:00 7.2 8 Sur 13 Oeste 0 -- -- 85
2020-03-10 08:00:00 6.4 11 Sudoeste 17 Sudoeste 0 -- -- 86
2020-03-10 07:00:00 5.9 7 Sudoeste 19 Sudoeste 0 -- -- 86
2020-03-10 06:00:00 5.4 9 Sudoeste 17 Sudoeste 0 -- -- 83
2020-03-10 05:00:00 5.6 8 Sudoeste 13 Sudoeste 0 -- -- 82
2020-03-10 04:00:00 5.8 6 Sudoeste 13 Sudoeste 0 -- -- 81
2020-03-10 03:00:00 6.2 9 Sudoeste 17 Sudoeste 0 -- -- 79
2020-03-10 02:00:00 6.4 10 Sudoeste 16 Sudoeste 0 -- -- 80
2020-03-10 01:00:00 7.1 4 Sudoeste 12 Sudoeste 0 -- -- 74
2020-03-10 00:00:00 7.5 6 Sudoeste 10 Oeste 0 -- -- 71
2020-03-09 23:00:00 7.3 5 Sudoeste 10 Sudoeste 0 -- -- 75
2020-03-09 22:00:00 7.5 7 Oeste 10 Oeste 0 -- -- 76
2020-03-09 21:00:00 8.3 5 Sudoeste 8 Sudoeste 0 -- -- 71
2020-03-09 20:00:00 9.6 6 Sudoeste 12 Oeste 0 -- -- 69
2020-03-09 19:00:00 13.5 6 Oeste 13 Noroeste 0 -- -- 50
2020-03-09 18:00:00 15.1 7 Noroeste 18 Noroeste 0 -- -- 44
2020-03-09 17:00:00 15 9 Noroeste 19 Norte 0 -- -- 38
2020-03-09 16:00:00 14.8 12 Noroeste 21 Noroeste 0 -- -- 38
2020-03-09 15:00:00 14.3 8 Norte 21 Noroeste 0 -- -- 42
2020-03-09 14:00:00 13.2 8 Noroeste 19 Noroeste 0 -- -- 47
2020-03-09 13:00:00 11.4 4 Sur 13 Sudoeste 0 -- -- 57
2020-03-09 12:00:00 10 4 Nordeste 11 Norte 0 -- -- 61
2020-03-09 11:00:00 9.1 4 Noroeste 13 Noroeste 0 -- -- 69
2020-03-09 10:00:00 6.8 7 Oeste 13 Oeste 0 -- -- 82
2020-03-09 09:00:00 3.3 7 Oeste 10 Sudoeste 0 -- -- 98
2020-03-09 08:00:00 1.1 8 Sudoeste 11 Sudoeste 0 -- -- 96
2020-03-09 07:00:00 1.7 6 Sudoeste 12 Sudoeste 0 -- -- 95
2020-03-09 06:00:00 2.3 7 Sudoeste 13 Sudoeste 0 -- -- 93
2020-03-09 05:00:00 3.2 11 Oeste 20 Oeste 0 -- -- 90
2020-03-09 04:00:00 4.4 13 Oeste 19 Oeste 0 -- -- 89
2020-03-09 03:00:00 4.7 11 Oeste 23 Oeste 0 -- -- 88
2020-03-09 02:00:00 5.6 14 Oeste 25 Oeste 0 -- -- 89
2020-03-09 01:00:00 6.3 17 Oeste 28 Oeste 0 -- -- 89
2020-03-09 00:00:00 7.1 14 Oeste 26 Oeste 0 -- -- 91
2020-03-08 23:00:00 6 7 Sudoeste 24 Sudoeste 0 -- -- 94
2020-03-08 22:00:00 6.9 15 Sudoeste 23 Sudoeste 0 -- -- 93
2020-03-08 21:00:00 7.8 14 Sudoeste 31 Sudoeste 0 -- -- 89
2020-03-08 20:00:00 8.9 25 Oeste 38 Oeste 0 -- -- 85
2020-03-08 19:00:00 10.6 28 Oeste 42 Oeste 0 -- -- 78
2020-03-08 18:00:00 12.1 22 Oeste 39 Oeste 0 -- -- 72
2020-03-08 17:00:00 12 20 Oeste 33 Sudoeste 0 -- -- 71
2020-03-08 16:00:00 11.2 23 Oeste 32 Oeste 0 -- -- 70
2020-03-08 15:00:00 10.9 21 Sudoeste 31 Sudoeste 0 -- -- 73
2020-03-08 14:00:00 10.7 18 Oeste 28 Oeste 0 -- -- 76
2020-03-08 13:00:00 9.1 17 Oeste 25 Oeste 0 -- -- 73
2020-03-08 12:00:00 8.7 21 Oeste 29 Oeste 0 -- -- 74
2020-03-08 11:00:00 6.2 16 Oeste 23 Sudoeste 0 -- -- 89
2020-03-08 10:00:00 3.9 10 Oeste 26 Sudoeste 0 -- -- 97
2020-03-08 09:00:00 2.8 11 Sudoeste 17 Sudoeste 0 -- -- 97
2020-03-08 08:00:00 1 4 Sudoeste 12 Sudoeste 0 -- -- 96
2020-03-08 07:00:00 0.8 6 Sudoeste 14 Sudoeste 0 -- -- 93
2020-03-08 06:00:00 1.7 9 Sudoeste 14 Sudoeste 0 -- -- 93
2020-03-08 05:00:00 2 5 Sudoeste 12 Sudoeste 0 -- -- 91
2020-03-08 04:00:00 2.9 4 Sudoeste 9 Sudoeste 0 -- -- 89
2020-03-08 03:00:00 2.9 4 Sudoeste 6 Sudoeste 0 -- -- 90
2020-03-08 02:00:00 2.9 4 Sudoeste 8 Sudoeste 0 -- -- 90
2020-03-08 01:00:00 3.6 5 Sudoeste 8 Sudoeste 0 -- -- 89
2020-03-08 00:00:00 4.3 5 Sudoeste 8 Sudoeste 0 -- -- 86
2020-03-07 23:00:00 5.4 4 Sudoeste 8 Sudoeste 0 -- -- 84
2020-03-07 22:00:00 6.3 5 Sudoeste 7 Sudoeste 0 -- -- 81
2020-03-07 21:00:00 7 4 Sudoeste 7 Sudoeste 0 -- -- 79
2020-03-07 20:00:00 8.5 4 Sudoeste 12 Oeste 0 -- -- 73
2020-03-07 19:00:00 11.6 10 Oeste 17 Oeste 0 -- -- 61
2020-03-07 18:00:00 12.8 12 Sudoeste 19 Oeste 0 -- -- 58
2020-03-07 17:00:00 13.4 7 Sudoeste 17 Oeste 0 -- -- 57
2020-03-07 16:00:00 12.9 7 Oeste 15 Oeste 0 -- -- 54
2020-03-07 15:00:00 11.7 6 Sudoeste 14 Sudoeste 0 -- -- 59
2020-03-07 14:00:00 11.1 6 Sudoeste 14 Sur 0 -- -- 60
2020-03-07 13:00:00 9.9 6 Sudoeste 14 Sur 0 -- -- 65
2020-03-07 12:00:00 8.4 8 Sudoeste 17 Sudoeste 0 -- -- 73
2020-03-07 11:00:00 6.5 9 Sudoeste 13 Sudoeste 0 -- -- 82
2020-03-07 10:00:00 4.4 10 Sudoeste 17 Sudoeste 0 -- -- 89
2020-03-07 09:00:00 2.8 10 Sudoeste 16 Sudoeste 0 -- -- 92
2020-03-07 08:00:00 1.8 6 Sudoeste 10 Sudoeste 0 -- -- 92
2020-03-07 07:00:00 1.7 6 Sudoeste 15 Sudoeste 0 -- -- 93
2020-03-07 06:00:00 2.1 8 Sudoeste 13 Sudoeste 0 -- -- 90
2020-03-07 05:00:00 2.8 6 Oeste 16 Oeste 0 -- -- 87
2020-03-07 04:00:00 2.4 6 Oeste 14 Noroeste 0 -- -- 87
2020-03-07 03:00:00 2.4 9 Oeste 14 Oeste 0 -- -- 85
2020-03-07 02:00:00 2.1 4 Sudoeste 15 Oeste 0 -- -- 82
2020-03-07 01:00:00 3.1 14 Noroeste 19 Noroeste 0 -- -- 77
2020-03-07 00:00:00 3.4 13 Noroeste 25 Oeste 0 -- -- 73
2020-03-06 23:00:00 3.6 10 Oeste 19 Noroeste 0 -- -- 74
2020-03-06 22:00:00 4.5 9 Oeste 26 Noroeste 0 -- -- 68
2020-03-06 21:00:00 5.2 13 Oeste 22 Noroeste 0 -- -- 64
2020-03-06 20:00:00 6.2 16 Noroeste 27 Noroeste 0 -- -- 60
2020-03-06 19:00:00 8.1 16 Noroeste 42 Oeste 0 -- -- 54
2020-03-06 18:00:00 9.2 32 Noroeste 45 Noroeste 0 -- -- 50
2020-03-06 17:00:00 9 24 Oeste 38 Oeste 0 -- -- 51
2020-03-06 16:00:00 9.4 27 Noroeste 40 Noroeste 0 -- -- 50
2020-03-06 15:00:00 10.3 24 Noroeste 40 Noroeste 0 -- -- 52
2020-03-06 14:00:00 9.2 30 Noroeste 46 Noroeste 0 -- -- 56
2020-03-06 13:00:00 8.3 29 Oeste 49 Noroeste 0 -- -- 61
2020-03-06 12:00:00 7.1 33 Noroeste 50 Noroeste 0 -- -- 66
2020-03-06 11:00:00 6.4 31 Oeste 53 Oeste 0 -- -- 70
2020-03-06 10:00:00 4.7 32 Oeste 53 Oeste 0 -- -- 80
2020-03-06 09:00:00 4.1 32 Oeste 47 Oeste 0 -- -- 81
2020-03-06 08:00:00 3.6 30 Oeste 46 Oeste 0 -- -- 84
2020-03-06 07:00:00 3.7 26 Oeste 49 Oeste 0 -- -- 86
2020-03-06 06:00:00 3.9 30 Oeste 49 Oeste 0 -- -- 86
2020-03-06 05:00:00 4.3 24 Oeste 44 Oeste 0 -- -- 88
2020-03-06 04:00:00 4.9 26 Oeste 40 Sudoeste 0 -- -- 92
2020-03-06 03:00:00 4.5 31 Sudoeste 47 Sudoeste 0 -- -- 93
2020-03-06 02:00:00 4 24 Oeste 44 Sudoeste 0 -- -- 90
2020-03-06 01:00:00 4.1 21 Oeste 31 Sudoeste 0 -- -- 90
2020-03-06 00:00:00 4.3 20 Oeste 29 Oeste 0 -- -- 87
2020-03-05 23:00:00 4.5 13 Oeste 37 Oeste 0 -- -- 86
2020-03-05 22:00:00 5.6 27 Oeste 44 Oeste 0 -- -- 78
2020-03-05 21:00:00 6.4 27 Oeste 42 Noroeste 0 -- -- 75
2020-03-05 20:00:00 7.4 26 Oeste 49 Oeste 0 -- -- 71
2020-03-05 19:00:00 8.9 29 Oeste 51 Oeste 0 -- -- 71
2020-03-05 18:00:00 10.6 28 Oeste 48 Oeste 0 -- -- 68
2020-03-05 17:00:00 10.3 30 Oeste 45 Oeste 0.2 -- -- 75
2020-03-05 16:00:00 10 26 Oeste 58 Oeste 0 -- -- 77
2020-03-05 15:00:00 11.1 34 Oeste 60 Oeste 0 -- -- 66
2020-03-05 14:00:00 10.7 36 Oeste 60 Oeste 0 -- -- 69
2020-03-05 13:00:00 10.4 35 Oeste 64 Oeste 0 -- -- 66
2020-03-05 12:00:00 9.3 42 Oeste 63 Oeste 0 -- -- 67
2020-03-05 11:00:00 8.4 40 Oeste 58 Oeste 0 -- -- 77
2020-03-05 10:00:00 7 31 Oeste 65 Noroeste 0.4 -- -- 85
2020-03-05 09:00:00 8.8 36 Oeste 66 Oeste 1.6 -- -- 90
2020-03-05 08:00:00 9.3 39 Sudoeste 62 Sudoeste 0.6 -- -- 94
2020-03-05 07:00:00 9.5 37 Sudoeste 59 Sudoeste 0 -- -- 88
2020-03-05 06:00:00 9.6 42 Sudoeste 62 Sudoeste 0 -- -- 87
2020-03-05 05:00:00 9.6 41 Sudoeste 59 Sudoeste 0 -- -- 90
2020-03-05 04:00:00 10 30 Sudoeste 50 Sudoeste 0 -- -- 92
2020-03-05 03:00:00 10.3 27 Sudoeste 43 Sudoeste 0 -- -- 93
2020-03-05 02:00:00 10.2 23 Sudoeste 33 Sudoeste 0 -- -- 93
2020-03-05 01:00:00 10.5 25 Sudoeste 41 Sudoeste 0 -- -- 90
2020-03-05 00:00:00 10.7 21 Sudoeste 30 Sudoeste 0 -- -- 90